createdAt,value
2023-03-24T00:01:08.974Z,9.30
2023-03-24T00:03:37.093Z,10.05
2023-03-24T00:06:05.814Z,12.07
2023-03-24T00:08:38.067Z,10.23
2023-03-24T00:11:11.729Z,10.95
2023-03-24T00:13:39.837Z,10.90
2023-03-24T00:16:13.059Z,10.90
2023-03-24T00:18:40.597Z,8.68
2023-03-24T00:21:09.171Z,9.30
2023-03-24T00:23:38.962Z,8.65
2023-03-24T00:26:09.262Z,8.43
2023-03-24T00:28:37.258Z,9.82
2023-03-24T00:31:06.611Z,9.18
2023-03-24T00:33:35.118Z,11.02
2023-03-24T00:36:05.685Z,8.43
2023-03-24T00:38:34.656Z,7.78
2023-03-24T00:41:02.558Z,7.78
2023-03-24T00:43:29.890Z,7.80
2023-03-24T00:46:08.291Z,8.88
2023-03-24T00:48:35.476Z,8.23
2023-03-24T00:51:03.116Z,8.25
2023-03-24T00:53:30.504Z,9.40
2023-03-24T00:55:58.836Z,7.82
2023-03-24T00:58:26.241Z,7.85
2023-03-24T01:00:56.000Z,9.02
2023-03-24T01:03:27.686Z,8.52
2023-03-24T01:06:02.359Z,9.20
2023-03-24T01:08:30.891Z,9.63
2023-03-24T01:11:01.198Z,9.02
2023-03-24T01:13:31.940Z,10.40
2023-03-24T01:15:59.401Z,9.13
2023-03-24T01:18:27.742Z,8.55
2023-03-24T01:20:55.237Z,9.52
2023-03-24T01:23:25.708Z,8.98
2023-03-24T01:25:54.433Z,9.35
2023-03-24T01:28:27.255Z,9.95
2023-03-24T01:30:54.735Z,10.85
2023-03-24T01:33:22.566Z,10.27
2023-03-24T01:35:50.544Z,10.32
2023-03-24T01:38:18.085Z,10.73
2023-03-24T01:40:47.501Z,11.45
2023-03-24T01:43:21.132Z,10.45
2023-03-24T01:45:51.648Z,11.52
2023-03-24T01:48:39.086Z,11.27
2023-03-24T01:51:16.365Z,10.18
2023-03-24T01:53:56.625Z,10.70
2023-03-24T01:56:25.734Z,10.23
2023-03-24T01:58:58.509Z,10.75
2023-03-24T02:01:34.519Z,10.25
2023-03-24T02:04:17.007Z,10.82
2023-03-24T02:06:45.856Z,11.27
2023-03-24T02:09:14.968Z,12.20
2023-03-24T02:11:43.801Z,10.38
2023-03-24T02:14:12.833Z,12.15
2023-03-24T02:17:16.266Z,11.88
2023-03-24T02:20:13.464Z,11.63
2023-03-24T02:23:06.808Z,12.50
2023-03-24T02:25:44.784Z,12.63
2023-03-24T02:28:30.276Z,12.93
2023-03-24T02:31:39.685Z,12.13
2023-03-24T02:34:36.083Z,12.85
2023-03-24T02:37:44.682Z,12.63
2023-03-24T02:40:32.433Z,12.07
2023-03-24T02:43:26.973Z,12.60
2023-03-24T02:46:23.607Z,12.07
2023-03-24T02:49:05.901Z,12.65
2023-03-24T02:51:56.880Z,13.10
2023-03-24T02:54:48.232Z,12.95
2023-03-24T02:57:59.050Z,11.50
2023-03-24T03:00:59.324Z,12.70
2023-03-24T03:04:37.242Z,12.88
2023-03-24T03:07:10.032Z,12.57
2023-03-24T03:09:41.516Z,12.57
2023-03-24T03:12:12.503Z,12.18
2023-03-24T03:14:45.918Z,12.80
2023-03-24T03:17:23.874Z,12.32
2023-03-24T03:19:56.131Z,12.60
2023-03-24T03:22:29.845Z,11.73
2023-03-24T03:25:01.217Z,12.23
2023-03-24T03:27:39.190Z,13.00
2023-03-24T03:30:14.011Z,12.77
2023-03-24T03:32:54.241Z,12.75
2023-03-24T03:35:33.224Z,13.10
2023-03-24T03:38:17.530Z,13.48
2023-03-24T03:40:56.492Z,12.50
2023-03-24T03:43:30.396Z,14.07
2023-03-24T03:45:59.533Z,15.30
2023-03-24T03:48:33.008Z,15.68
2023-03-24T03:51:13.150Z,13.73
2023-03-24T03:53:58.329Z,14.57
2023-03-24T03:56:30.724Z,15.07
2023-03-24T03:59:30.945Z,15.05
2023-03-24T04:02:18.139Z,14.95
2023-03-24T04:07:58.669Z,16.55
2023-03-24T04:11:09.986Z,16.30
2023-03-24T04:14:17.110Z,17.75
2023-03-24T04:17:43.454Z,42.25
2023-03-24T04:20:38.260Z,32.85
2023-03-24T04:23:34.607Z,37.42
2023-03-24T04:26:17.990Z,39.05
2023-03-24T04:29:17.936Z,83.57
2023-03-24T04:31:53.489Z,59.45
2023-03-24T04:34:29.229Z,57.55
2023-03-24T04:37:12.548Z,55.65
2023-03-24T04:40:06.004Z,56.85
2023-03-24T04:42:37.470Z,51.85
2023-03-24T04:45:07.004Z,37.55
2023-03-24T04:48:01.122Z,37.72
2023-03-24T04:50:56.502Z,42.08
2023-03-24T04:53:25.815Z,28.38
2023-03-24T04:55:58.827Z,37.35
2023-03-24T04:58:48.399Z,36.47
2023-03-24T05:01:17.193Z,45.03
2023-03-24T05:03:53.479Z,33.13
2023-03-24T05:06:21.481Z,28.60
2023-03-24T05:08:57.703Z,27.65
2023-03-24T05:11:27.954Z,25.02
2023-03-24T05:14:04.680Z,20.77
2023-03-24T05:16:31.941Z,18.05
2023-03-24T05:19:01.884Z,17.85
2023-03-24T05:21:33.564Z,16.30
2023-03-24T05:24:02.308Z,18.80
2023-03-24T05:26:31.296Z,18.08
2023-03-24T05:29:07.141Z,18.73
2023-03-24T05:31:35.123Z,19.73
2023-03-24T05:34:09.714Z,23.85
2023-03-24T05:37:07.534Z,18.35
2023-03-24T05:39:34.910Z,21.08
2023-03-24T05:42:10.144Z,19.60
2023-03-24T05:44:39.968Z,18.55
2023-03-24T05:47:18.436Z,18.55
2023-03-24T05:49:48.743Z,16.63
2023-03-24T05:52:16.489Z,16.25
2023-03-24T05:54:46.229Z,14.65
2023-03-24T05:57:18.253Z,15.18
2023-03-24T06:00:08.023Z,15.60
2023-03-24T06:02:52.529Z,14.82
2023-03-24T06:05:31.695Z,14.65
2023-03-24T06:08:01.412Z,15.32
2023-03-24T06:10:31.743Z,14.05
2023-03-24T06:13:00.015Z,12.48
2023-03-24T06:15:28.456Z,12.95
2023-03-24T06:18:05.361Z,11.77
2023-03-24T06:20:36.029Z,13.00
2023-03-24T06:23:08.036Z,12.93
2023-03-24T06:25:59.030Z,11.25
2023-03-24T06:28:30.510Z,10.15
2023-03-24T06:31:01.404Z,11.15
2023-03-24T06:33:34.611Z,11.70
2023-03-24T06:36:05.596Z,9.85
2023-03-24T06:38:33.560Z,11.18
2023-03-24T06:41:04.758Z,11.48
2023-03-24T06:43:34.708Z,12.43
2023-03-24T06:46:02.316Z,11.70
2023-03-24T06:48:30.766Z,10.77
2023-03-24T06:51:07.809Z,9.95
2023-03-24T06:53:35.526Z,9.98
2023-03-24T06:56:03.510Z,10.88
2023-03-24T06:58:38.006Z,14.27
2023-03-24T07:01:07.345Z,14.77
2023-03-24T07:03:43.770Z,10.77
2023-03-24T07:06:18.505Z,10.30
2023-03-24T07:08:51.335Z,10.98
2023-03-24T07:11:19.534Z,9.52
2023-03-24T07:13:55.969Z,9.80
2023-03-24T07:16:23.485Z,10.43
2023-03-24T07:19:01.261Z,10.35
2023-03-24T07:21:30.768Z,11.43
2023-03-24T07:23:57.947Z,10.40
2023-03-24T07:26:31.290Z,10.40
2023-03-24T07:29:04.762Z,9.00
2023-03-24T07:31:51.068Z,10.23
2023-03-24T07:34:18.072Z,10.73
2023-03-24T07:36:47.842Z,9.40
2023-03-24T07:39:17.255Z,8.80
2023-03-24T07:41:44.770Z,8.23
2023-03-24T07:44:22.794Z,10.07
2023-03-24T07:46:52.034Z,8.07
2023-03-24T07:49:20.116Z,8.90
2023-03-24T07:52:08.451Z,11.70
2023-03-24T07:54:41.803Z,11.60
2023-03-24T07:57:11.118Z,13.15
2023-03-24T07:59:41.788Z,7.47
2023-03-24T08:02:19.944Z,10.27
2023-03-24T08:05:02.877Z,8.82
2023-03-24T08:07:55.704Z,7.50
2023-03-24T08:10:28.099Z,9.30
2023-03-24T08:12:56.808Z,11.43
2023-03-24T08:15:24.597Z,10.10
2023-03-24T08:17:52.275Z,9.23
2023-03-24T08:20:21.309Z,18.70
2023-03-24T08:22:50.055Z,9.60
2023-03-24T08:25:21.780Z,9.48
2023-03-24T08:27:49.423Z,8.27
2023-03-24T08:30:20.436Z,13.48
2023-03-24T08:32:56.135Z,16.48
2023-03-24T08:35:32.086Z,9.48
2023-03-24T08:38:01.632Z,9.80
2023-03-24T08:40:31.808Z,10.35
2023-03-24T08:43:03.196Z,8.15
2023-03-24T08:45:32.196Z,10.30
2023-03-24T08:48:06.186Z,8.50
2023-03-24T08:50:37.224Z,10.15
2023-03-24T08:53:04.831Z,10.00
2023-03-24T08:55:32.649Z,9.35
2023-03-24T08:58:01.073Z,11.77
2023-03-24T09:00:29.107Z,13.90
2023-03-24T09:02:57.065Z,11.40
2023-03-24T09:05:40.784Z,11.45
2023-03-24T09:08:16.504Z,12.95
2023-03-24T09:10:46.950Z,11.48
2023-03-24T09:13:17.941Z,13.32
2023-03-24T09:15:53.311Z,11.60
2023-03-24T09:18:22.002Z,9.77
2023-03-24T09:20:49.864Z,13.98
2023-03-24T09:23:18.741Z,13.23
2023-03-24T09:25:46.308Z,11.00
2023-03-24T09:28:14.986Z,10.52
2023-03-24T09:30:42.828Z,9.27
2023-03-24T09:33:10.546Z,8.68
2023-03-24T09:35:37.755Z,17.67
2023-03-24T09:38:05.292Z,23.42
2023-03-24T09:40:38.270Z,11.52
2023-03-24T09:43:29.561Z,12.85
2023-03-24T09:45:59.426Z,19.80
2023-03-24T09:48:48.473Z,11.98
2023-03-24T09:51:25.506Z,10.75
2023-03-24T09:54:08.235Z,14.45
2023-03-24T09:56:41.271Z,7.97
2023-03-24T09:59:14.219Z,12.02
2023-03-24T10:01:41.268Z,9.68
2023-03-24T10:04:22.838Z,8.57
2023-03-24T10:06:55.934Z,10.98
2023-03-24T10:09:36.105Z,8.98
2023-03-24T10:12:24.655Z,11.10
2023-03-24T10:15:05.573Z,12.25
2023-03-24T10:18:00.362Z,11.80
2023-03-24T10:20:55.372Z,10.48
2023-03-24T10:23:38.663Z,8.77
2023-03-24T10:26:37.196Z,12.18
2023-03-24T10:29:34.505Z,9.52
2023-03-24T10:32:14.681Z,9.65
2023-03-24T10:34:48.542Z,9.48
2023-03-24T10:37:17.492Z,11.80
2023-03-24T10:39:45.378Z,14.65
2023-03-24T10:42:21.968Z,8.68
2023-03-24T10:44:51.059Z,12.60
2023-03-24T10:47:32.523Z,11.60
2023-03-24T10:50:12.462Z,12.02
2023-03-24T10:52:47.517Z,8.35
2023-03-24T10:55:17.522Z,11.73
2023-03-24T10:57:48.381Z,9.90
2023-03-24T11:00:25.418Z,11.55
2023-03-24T11:03:05.170Z,11.07
2023-03-24T11:05:38.229Z,10.40
2023-03-24T11:08:26.109Z,9.30
2023-03-24T11:10:53.203Z,9.88
2023-03-24T11:13:32.549Z,13.80
2023-03-24T11:16:15.185Z,11.45
2023-03-24T11:19:07.102Z,10.10
2023-03-24T11:21:37.882Z,10.05
2023-03-24T11:24:14.614Z,13.25
2023-03-24T11:26:47.621Z,7.57
2023-03-24T11:29:19.385Z,10.40
2023-03-24T11:31:56.488Z,24.20
2023-03-24T11:34:38.967Z,20.08
2023-03-24T11:37:19.763Z,13.05
2023-03-24T11:40:17.647Z,11.45
2023-03-24T11:42:47.504Z,9.63
2023-03-24T11:45:21.170Z,7.00
2023-03-24T11:47:50.376Z,8.20
2023-03-24T11:50:26.010Z,9.68
2023-03-24T11:53:04.170Z,11.82
2023-03-24T11:55:37.061Z,9.50
2023-03-24T11:58:54.927Z,8.25
2023-03-24T12:01:22.245Z,6.85
2023-03-24T12:03:58.852Z,8.05
2023-03-24T12:07:00.386Z,7.07
2023-03-24T12:09:32.686Z,6.25
2023-03-24T12:12:11.631Z,7.57
2023-03-24T12:15:28.187Z,6.90
2023-03-24T12:18:06.507Z,9.05
2023-03-24T12:20:37.791Z,8.20
2023-03-24T12:23:12.436Z,7.20
2023-03-24T12:25:58.265Z,10.75
2023-03-24T12:28:59.500Z,9.27
2023-03-24T12:31:32.808Z,5.82
2023-03-24T12:34:18.979Z,5.78
2023-03-24T12:37:02.219Z,6.53
2023-03-24T12:39:43.146Z,6.03
2023-03-24T12:42:23.705Z,5.57
2023-03-24T12:45:05.400Z,5.85
2023-03-24T12:47:47.712Z,5.13
2023-03-24T12:50:33.087Z,5.18
2023-03-24T12:53:41.615Z,7.13
2023-03-24T12:56:20.182Z,6.40
2023-03-24T12:58:55.308Z,7.18
2023-03-24T13:01:50.977Z,5.45
2023-03-24T13:04:30.532Z,7.32
2023-03-24T13:07:11.608Z,5.85
2023-03-24T13:09:53.719Z,4.57
2023-03-24T13:12:24.873Z,5.47
2023-03-24T13:15:16.318Z,5.38
2023-03-24T13:18:11.875Z,7.53
2023-03-24T13:20:46.772Z,11.48
2023-03-24T13:23:39.488Z,13.23
2023-03-24T13:26:06.763Z,5.22
2023-03-24T13:28:47.355Z,5.95
2023-03-24T13:31:15.953Z,5.53
2023-03-24T13:33:45.108Z,5.00
2023-03-24T13:36:22.876Z,8.43
2023-03-24T13:38:54.428Z,7.35
2023-03-24T13:41:27.277Z,12.48
2023-03-24T13:44:06.717Z,7.15
2023-03-24T13:46:37.735Z,8.10
2023-03-24T13:49:09.383Z,10.50
2023-03-24T13:51:41.076Z,7.75
2023-03-24T13:54:21.872Z,6.20
2023-03-24T13:56:55.026Z,7.25
2023-03-24T13:59:29.850Z,7.25
2023-03-24T14:02:28.884Z,9.40
2023-03-24T14:04:59.396Z,30.90
2023-03-24T14:07:34.018Z,57.75
2023-03-24T14:10:23.344Z,82.28
2023-03-24T14:12:59.167Z,147.25
2023-03-24T14:15:30.524Z,87.82
2023-03-24T14:18:17.196Z,46.17
2023-03-24T14:20:56.601Z,21.65
2023-03-24T14:23:42.501Z,10.98
2023-03-24T14:26:23.246Z,10.57
2023-03-24T14:28:55.240Z,14.20
2023-03-24T14:31:24.326Z,11.07
2023-03-24T14:33:54.471Z,15.05
2023-03-24T14:36:40.297Z,9.57
2023-03-24T14:39:31.735Z,7.68
2023-03-24T14:41:59.508Z,6.22
2023-03-24T14:44:53.459Z,6.22
2023-03-24T14:47:23.931Z,5.20
2023-03-24T14:50:10.344Z,6.47
2023-03-24T14:52:44.660Z,12.52
2023-03-24T14:55:19.477Z,13.63
2023-03-24T14:57:53.098Z,7.20
2023-03-24T15:00:38.731Z,6.07
2023-03-24T15:03:38.421Z,6.13
2023-03-24T15:06:22.053Z,6.85
2023-03-24T15:08:52.428Z,7.30
2023-03-24T15:11:24.272Z,8.77
2023-03-24T15:13:53.825Z,7.88
2023-03-24T15:16:32.432Z,7.97
2023-03-24T15:19:01.979Z,8.82
2023-03-24T15:21:40.993Z,14.52
2023-03-24T15:24:23.356Z,20.83
2023-03-24T15:26:53.842Z,14.93
2023-03-24T15:29:21.897Z,9.85
2023-03-24T15:31:50.629Z,10.88
2023-03-24T15:34:40.140Z,12.85
2023-03-24T15:37:41.396Z,14.13
2023-03-24T15:40:27.828Z,14.88
2023-03-24T15:42:57.095Z,17.90
2023-03-24T15:45:33.554Z,14.98
2023-03-24T15:48:24.785Z,13.43
2023-03-24T15:50:58.675Z,15.70
2023-03-24T15:53:49.284Z,13.68
2023-03-24T15:56:18.947Z,12.95
2023-03-24T15:58:55.615Z,14.55
2023-03-24T16:01:31.458Z,15.30
2023-03-24T16:04:02.145Z,25.25
2023-03-24T16:06:35.183Z,48.88
2023-03-24T16:09:09.473Z,36.22
2023-03-24T16:11:36.935Z,41.63
2023-03-24T16:14:14.178Z,19.52
2023-03-24T16:16:44.260Z,22.25
2023-03-24T16:19:11.980Z,16.48
2023-03-24T16:21:39.253Z,19.20
2023-03-24T16:24:06.676Z,15.70
2023-03-24T16:26:34.017Z,15.60
2023-03-24T16:29:18.865Z,21.50
2023-03-24T16:31:51.258Z,23.70
2023-03-24T16:34:20.795Z,29.10
2023-03-24T16:36:49.505Z,42.10
2023-03-24T16:39:19.152Z,36.40
2023-03-24T16:41:47.111Z,47.38
2023-03-24T16:44:14.740Z,54.05
2023-03-24T16:46:43.398Z,94.22
2023-03-24T16:49:15.657Z,119.93
2023-03-24T16:51:46.446Z,104.50
2023-03-24T16:54:14.248Z,96.32
2023-03-24T16:56:43.883Z,174.90
2023-03-24T16:59:12.653Z,127.07
2023-03-24T17:01:46.198Z,86.07
2023-03-24T17:04:19.534Z,41.78
2023-03-24T17:06:55.060Z,37.75
2023-03-24T17:09:23.065Z,27.60
2023-03-24T17:11:53.237Z,56.55
2023-03-24T17:14:20.328Z,74.05
2023-03-24T17:16:49.353Z,60.33
2023-03-24T17:19:22.526Z,53.35
2023-03-24T17:22:00.558Z,65.65
2023-03-24T17:24:29.791Z,57.50
2023-03-24T17:26:57.601Z,69.70
2023-03-24T17:29:28.674Z,70.25
2023-03-24T17:31:58.724Z,80.88
2023-03-24T17:34:25.819Z,63.65
2023-03-24T17:36:53.279Z,48.95
2023-03-24T17:39:21.576Z,52.35
2023-03-24T17:41:57.665Z,34.35
2023-03-24T17:44:27.112Z,35.90
2023-03-24T17:46:54.745Z,34.53
2023-03-24T17:49:22.058Z,38.80
2023-03-24T17:51:49.466Z,47.40
2023-03-24T17:54:19.193Z,57.33
2023-03-24T17:56:47.786Z,50.03
2023-03-24T17:59:15.016Z,29.48
2023-03-24T18:01:42.672Z,36.45
2023-03-24T18:04:09.868Z,38.50
2023-03-24T18:06:38.598Z,38.08
2023-03-24T18:09:06.669Z,36.63
2023-03-24T18:11:34.249Z,32.92
2023-03-24T18:14:02.238Z,26.80
2023-03-24T18:16:35.316Z,22.17
2023-03-24T18:19:03.510Z,21.75
2023-03-24T18:21:33.732Z,23.17
2023-03-24T18:24:00.808Z,23.42
2023-03-24T18:26:29.540Z,24.20
2023-03-24T18:28:56.796Z,26.15
2023-03-24T18:31:26.233Z,86.13
2023-03-24T18:33:54.488Z,169.88
2023-03-24T18:36:28.647Z,50.72
2023-03-24T18:39:07.365Z,35.95
2023-03-24T18:41:39.092Z,33.97
2023-03-24T18:44:27.457Z,27.42
2023-03-24T18:46:55.554Z,23.15
2023-03-24T18:49:22.632Z,15.82
2023-03-24T18:51:50.077Z,13.25
2023-03-24T18:54:18.491Z,16.50
2023-03-24T18:56:46.365Z,14.88
2023-03-24T18:59:13.490Z,27.73
2023-03-24T19:01:40.880Z,21.23
2023-03-24T19:04:09.334Z,10.82
2023-03-24T19:06:37.220Z,10.45
2023-03-24T19:09:08.062Z,10.48
2023-03-24T19:11:36.525Z,10.30
2023-03-24T19:14:06.108Z,12.18
2023-03-24T19:16:35.984Z,13.38
2023-03-24T19:19:03.273Z,22.95
2023-03-24T19:21:33.814Z,27.27
2023-03-24T19:24:00.958Z,25.83
2023-03-24T19:26:28.239Z,52.42
2023-03-24T19:28:55.477Z,41.72
2023-03-24T19:31:25.753Z,18.63
2023-03-24T19:33:53.690Z,16.05
2023-03-24T19:36:21.300Z,8.68
2023-03-24T19:38:48.738Z,9.50
2023-03-24T19:41:16.441Z,10.75
2023-03-24T19:43:43.522Z,10.60
2023-03-24T19:46:11.610Z,8.27
2023-03-24T19:48:38.927Z,11.80
2023-03-24T19:51:06.605Z,10.02
2023-03-24T19:53:37.865Z,13.50
2023-03-24T19:56:06.618Z,14.52
2023-03-24T19:58:33.839Z,12.98
2023-03-24T20:01:01.332Z,13.60
2023-03-24T20:03:28.916Z,13.98
2023-03-24T20:05:56.833Z,10.60
2023-03-24T20:08:26.037Z,17.00
2023-03-24T20:10:53.527Z,25.77
2023-03-24T20:13:20.646Z,23.60
2023-03-24T20:15:48.260Z,41.25
2023-03-24T20:18:15.500Z,54.53
2023-03-24T20:20:43.002Z,86.75
2023-03-24T20:23:10.600Z,93.57
2023-03-24T20:25:41.964Z,72.38
2023-03-24T20:28:12.616Z,65.25
2023-03-24T20:30:40.315Z,54.65
2023-03-24T20:33:07.405Z,29.17
2023-03-24T20:35:36.511Z,23.23
2023-03-24T20:38:03.930Z,13.27
2023-03-24T20:40:31.260Z,13.23
2023-03-24T20:43:07.478Z,11.88
2023-03-24T20:45:35.352Z,16.65
2023-03-24T20:48:03.269Z,33.05
2023-03-24T20:50:31.304Z,43.10
2023-03-24T20:52:58.441Z,44.75
2023-03-24T20:55:26.232Z,41.60
2023-03-24T20:57:53.873Z,47.38
2023-03-24T21:00:24.218Z,14.90
2023-03-24T21:02:52.381Z,17.63
2023-03-24T21:05:19.888Z,19.23
2023-03-24T21:07:46.991Z,76.38
2023-03-24T21:10:14.582Z,38.95
2023-03-24T21:12:52.858Z,36.63
2023-03-24T21:15:23.201Z,33.20
2023-03-24T21:17:50.559Z,32.78
2023-03-24T21:20:20.784Z,22.33
2023-03-24T21:22:53.531Z,25.08
2023-03-24T21:25:26.199Z,25.83
2023-03-24T21:27:54.399Z,24.75
2023-03-24T21:30:23.681Z,27.13
2023-03-24T21:32:52.827Z,31.42
2023-03-24T21:35:20.937Z,41.10
2023-03-24T21:37:48.741Z,133.18
2023-03-24T21:40:18.998Z,204.75
2023-03-24T21:42:46.843Z,279.38
2023-03-24T21:45:21.488Z,269.55
2023-03-24T21:47:49.326Z,279.90
2023-03-24T21:50:22.993Z,143.70
2023-03-24T21:52:52.143Z,65.97
2023-03-24T21:55:20.777Z,41.22
2023-03-24T21:57:49.880Z,36.38
2023-03-24T22:00:23.104Z,29.23
2023-03-24T22:02:52.494Z,30.23
2023-03-24T22:05:23.998Z,25.25
2023-03-24T22:07:52.811Z,24.67
2023-03-24T22:10:23.543Z,36.47
2023-03-24T22:12:52.972Z,34.75
2023-03-24T22:15:21.453Z,30.50
2023-03-24T22:17:48.823Z,22.58
2023-03-24T22:20:16.799Z,15.48
2023-03-24T22:22:44.012Z,14.55
2023-03-24T22:25:13.887Z,14.00
2023-03-24T22:27:41.301Z,18.63
2023-03-24T22:30:11.557Z,15.95
2023-03-24T22:32:39.341Z,20.63
2023-03-24T22:35:07.610Z,17.60
2023-03-24T22:37:34.867Z,16.27
2023-03-24T22:40:06.021Z,13.40
2023-03-24T22:42:33.218Z,13.77
2023-03-24T22:45:00.847Z,20.33
2023-03-24T22:47:28.956Z,17.20
2023-03-24T22:49:56.561Z,12.23
2023-03-24T22:52:23.833Z,13.20
2023-03-24T22:54:51.093Z,16.40
2023-03-24T22:57:18.780Z,15.77
2023-03-24T22:59:46.193Z,18.40
2023-03-24T23:02:13.243Z,16.67
2023-03-24T23:04:43.854Z,16.50
2023-03-24T23:07:11.223Z,15.05
2023-03-24T23:09:43.144Z,14.45
2023-03-24T23:12:11.249Z,11.70
2023-03-24T23:14:40.166Z,12.73
2023-03-24T23:17:09.704Z,14.50
2023-03-24T23:19:37.530Z,12.18
2023-03-24T23:22:05.074Z,13.13
2023-03-24T23:24:33.697Z,11.30
2023-03-24T23:27:03.441Z,13.55
2023-03-24T23:29:31.468Z,19.80
2023-03-24T23:32:01.269Z,18.25
2023-03-24T23:34:31.125Z,17.15
2023-03-24T23:36:58.484Z,18.17
2023-03-24T23:39:26.185Z,17.63
2023-03-24T23:41:53.254Z,18.52
2023-03-24T23:44:20.699Z,17.63
2023-03-24T23:46:47.773Z,17.63
2023-03-24T23:49:15.541Z,17.73
2023-03-24T23:51:42.862Z,17.23
2023-03-24T23:54:10.315Z,16.98
2023-03-24T23:56:38.565Z,17.55
2023-03-24T23:59:07.706Z,16.13
